createdAt,value
2022-09-09T00:01:38.178Z,14.07
2022-09-09T00:04:15.471Z,14.01
2022-09-09T00:06:49.525Z,14.05
2022-09-09T00:09:22.298Z,14.04
2022-09-09T00:11:53.128Z,14.01
2022-09-09T00:14:38.466Z,13.96
2022-09-09T00:17:13.730Z,13.91
2022-09-09T00:19:51.426Z,13.90
2022-09-09T00:22:24.162Z,13.87
2022-09-09T00:24:57.546Z,13.89
2022-09-09T00:27:38.947Z,13.82
2022-09-09T00:30:28.441Z,13.80
2022-09-09T00:33:00.461Z,13.75
2022-09-09T00:35:36.338Z,13.68
2022-09-09T00:38:11.773Z,13.70
2022-09-09T00:40:45.191Z,13.71
2022-09-09T00:43:26.602Z,13.67
2022-09-09T00:46:16.807Z,13.63
2022-09-09T00:49:04.665Z,13.59
2022-09-09T00:51:31.498Z,13.55
2022-09-09T00:54:16.011Z,13.57
2022-09-09T00:56:55.205Z,13.54
2022-09-09T00:59:28.571Z,13.50
2022-09-09T01:01:56.888Z,13.49
2022-09-09T01:04:34.906Z,13.48
2022-09-09T01:07:16.851Z,13.48
2022-09-09T01:09:52.303Z,13.52
2022-09-09T01:12:26.314Z,13.54
2022-09-09T01:15:09.492Z,13.56
2022-09-09T01:18:00.432Z,13.57
2022-09-09T01:20:34.442Z,13.56
2022-09-09T01:23:24.861Z,13.53
2022-09-09T01:26:22.802Z,13.62
2022-09-09T01:28:53.533Z,13.63
2022-09-09T01:31:29.017Z,13.61
2022-09-09T01:33:55.657Z,13.66
2022-09-09T01:36:36.258Z,13.67
2022-09-09T01:39:03.818Z,13.69
2022-09-09T01:41:30.629Z,13.67
2022-09-09T01:44:05.119Z,13.70
2022-09-09T01:46:34.287Z,13.73
2022-09-09T01:49:05.135Z,13.70
2022-09-09T01:51:32.301Z,13.71
2022-09-09T01:54:04.078Z,13.75
2022-09-09T01:56:49.154Z,13.73
2022-09-09T01:59:41.198Z,13.71
2022-09-09T02:02:13.274Z,13.71
2022-09-09T02:04:51.738Z,13.68
2022-09-09T02:07:47.643Z,13.54
2022-09-09T02:10:51.746Z,13.48
2022-09-09T02:13:36.534Z,13.50
2022-09-09T02:16:16.397Z,13.52
2022-09-09T02:19:29.205Z,13.57
2022-09-09T02:22:07.986Z,13.61
2022-09-09T02:24:38.196Z,13.59
2022-09-09T02:27:22.603Z,13.57
2022-09-09T02:29:52.107Z,13.57
2022-09-09T02:32:25.390Z,13.59
2022-09-09T02:35:00.541Z,13.60
2022-09-09T02:37:32.997Z,13.65
2022-09-09T02:40:00.334Z,13.65
2022-09-09T02:42:32.639Z,13.68
2022-09-09T02:45:02.174Z,13.65
2022-09-09T02:47:39.546Z,13.61
2022-09-09T02:50:11.496Z,13.64
2022-09-09T02:52:48.448Z,13.61
2022-09-09T02:55:25.409Z,13.61
2022-09-09T02:57:58.017Z,13.61
2022-09-09T03:00:28.956Z,13.58
2022-09-09T03:03:00.830Z,13.61
2022-09-09T03:05:28.923Z,13.61
2022-09-09T03:07:55.903Z,13.59
2022-09-09T03:10:22.813Z,13.54
2022-09-09T03:12:49.383Z,13.56
2022-09-09T03:15:17.418Z,13.63
2022-09-09T03:17:44.452Z,13.64
2022-09-09T03:20:11.324Z,13.60
2022-09-09T03:22:38.617Z,13.59
2022-09-09T03:25:06.661Z,13.56
2022-09-09T03:27:35.529Z,13.60
2022-09-09T03:30:04.434Z,13.63
2022-09-09T03:32:32.233Z,13.68
2022-09-09T03:34:59.292Z,13.73
2022-09-09T03:37:26.591Z,13.67
2022-09-09T03:39:55.487Z,13.67
2022-09-09T03:42:22.979Z,13.64
2022-09-09T03:44:52.645Z,13.64
2022-09-09T03:47:23.115Z,13.59
2022-09-09T03:49:52.271Z,13.58
2022-09-09T03:52:23.566Z,13.56
2022-09-09T03:54:52.141Z,13.57
2022-09-09T03:57:18.757Z,13.61
2022-09-09T03:59:45.352Z,13.70
2022-09-09T04:02:11.975Z,13.75
2022-09-09T04:04:38.589Z,13.73
2022-09-09T04:07:07.092Z,13.75
2022-09-09T04:09:35.696Z,13.69
2022-09-09T04:12:02.844Z,13.73
2022-09-09T04:14:30.799Z,13.72
2022-09-09T04:17:07.048Z,13.81
2022-09-09T04:19:34.347Z,13.79
2022-09-09T04:22:01.965Z,13.81
2022-09-09T04:24:30.121Z,13.83
2022-09-09T04:26:58.501Z,13.84
2022-09-09T04:29:25.857Z,13.84
2022-09-09T04:31:52.497Z,13.90
2022-09-09T04:34:19.339Z,13.90
2022-09-09T04:36:46.707Z,13.93
2022-09-09T04:39:13.277Z,13.94
2022-09-09T04:41:39.775Z,13.97
2022-09-09T04:44:06.690Z,13.97
2022-09-09T04:46:35.241Z,13.97
2022-09-09T04:49:03.704Z,13.97
2022-09-09T04:51:32.323Z,14.01
2022-09-09T04:53:59.605Z,14.07
2022-09-09T04:56:31.654Z,14.10
2022-09-09T04:59:06.123Z,14.11
2022-09-09T05:01:40.194Z,14.12
2022-09-09T05:04:06.688Z,14.14
2022-09-09T05:06:35.005Z,14.13
2022-09-09T05:09:02.136Z,14.08
2022-09-09T05:11:33.275Z,14.08
2022-09-09T05:14:20.160Z,14.03
2022-09-09T05:16:48.019Z,14.04
2022-09-09T05:19:14.640Z,14.07
2022-09-09T05:21:44.939Z,14.05
2022-09-09T05:24:12.629Z,14.02
2022-09-09T05:26:40.076Z,14.12
2022-09-09T05:29:07.716Z,14.07
2022-09-09T05:31:34.815Z,14.09
2022-09-09T05:34:30.236Z,14.13
2022-09-09T05:36:57.289Z,14.16
2022-09-09T05:39:25.257Z,14.20
2022-09-09T05:41:52.114Z,14.31
2022-09-09T05:44:18.594Z,14.37
2022-09-09T05:46:45.881Z,14.38
2022-09-09T05:49:13.687Z,14.41
2022-09-09T05:51:41.301Z,14.43
2022-09-09T05:54:11.170Z,14.47
2022-09-09T05:56:42.661Z,14.50
2022-09-09T05:59:10.179Z,14.52
2022-09-09T06:01:41.451Z,14.52
2022-09-09T06:04:10.809Z,14.54
2022-09-09T06:06:40.948Z,14.56
2022-09-09T06:09:16.910Z,14.62
2022-09-09T06:11:43.869Z,14.69
2022-09-09T06:14:11.499Z,14.80
2022-09-09T06:16:39.675Z,14.87
2022-09-09T06:19:13.774Z,14.95
2022-09-09T06:21:41.221Z,15.09
2022-09-09T06:24:09.016Z,15.21
2022-09-09T06:26:38.474Z,15.31
2022-09-09T06:29:05.734Z,15.36
2022-09-09T06:31:35.321Z,15.42
2022-09-09T06:34:09.551Z,15.30
2022-09-09T06:36:39.836Z,15.30
2022-09-09T06:39:12.210Z,15.30
2022-09-09T06:41:40.966Z,15.27
2022-09-09T06:44:14.387Z,15.25
2022-09-09T06:46:42.504Z,15.26
2022-09-09T06:49:11.045Z,15.23
2022-09-09T06:51:43.662Z,15.23
2022-09-09T06:54:13.149Z,15.27
2022-09-09T06:56:44.158Z,15.31
2022-09-09T06:59:17.434Z,15.36
2022-09-09T07:01:45.108Z,15.46
2022-09-09T07:04:14.455Z,15.54
2022-09-09T07:06:46.728Z,15.63
2022-09-09T07:09:23.370Z,15.73
2022-09-09T07:11:53.758Z,15.86
2022-09-09T07:14:22.896Z,15.86
2022-09-09T07:16:59.347Z,15.91
2022-09-09T07:19:27.148Z,15.84
2022-09-09T07:21:55.002Z,15.86
2022-09-09T07:24:23.977Z,15.93
2022-09-09T07:26:53.083Z,15.97
2022-09-09T07:29:21.119Z,15.99
2022-09-09T07:31:49.347Z,15.95
2022-09-09T07:34:20.475Z,15.94
2022-09-09T07:36:47.621Z,16.04
2022-09-09T07:39:14.871Z,16.02
2022-09-09T07:41:48.055Z,16.06
2022-09-09T07:44:22.707Z,16.13
2022-09-09T07:46:54.159Z,16.22
2022-09-09T07:49:32.136Z,16.34
2022-09-09T07:52:00.752Z,16.45
2022-09-09T07:54:28.697Z,16.37
2022-09-09T07:56:55.432Z,16.42
2022-09-09T07:59:25.219Z,16.51
2022-09-09T08:01:55.444Z,16.58
2022-09-09T08:04:26.171Z,16.82
2022-09-09T08:06:56.302Z,16.87
2022-09-09T08:09:30.203Z,16.92
2022-09-09T08:12:15.343Z,17.17
2022-09-09T08:14:41.938Z,17.28
2022-09-09T08:17:08.459Z,17.25
2022-09-09T08:19:36.706Z,17.38
2022-09-09T08:22:06.953Z,17.62
2022-09-09T08:24:35.163Z,17.67
2022-09-09T08:27:02.606Z,17.73
2022-09-09T08:29:29.567Z,17.82
2022-09-09T08:31:58.956Z,17.81
2022-09-09T08:34:28.165Z,17.74
2022-09-09T08:36:57.091Z,17.74
2022-09-09T08:39:30.431Z,17.75
2022-09-09T08:42:02.587Z,17.59
2022-09-09T08:44:35.575Z,17.68
2022-09-09T08:47:19.364Z,17.85
2022-09-09T08:50:06.593Z,17.98
2022-09-09T08:52:55.720Z,18.15
2022-09-09T08:55:25.435Z,18.23
2022-09-09T08:57:56.135Z,18.21
2022-09-09T09:00:35.343Z,18.19
2022-09-09T09:03:10.950Z,18.42
2022-09-09T09:06:03.065Z,18.40
2022-09-09T09:08:57.747Z,18.54
2022-09-09T09:11:24.708Z,18.43
2022-09-09T09:14:06.371Z,18.54
2022-09-09T09:17:00.383Z,18.67
2022-09-09T09:19:53.854Z,18.63
2022-09-09T09:22:47.171Z,18.68
2022-09-09T09:25:23.051Z,18.70
2022-09-09T09:28:25.547Z,18.91
2022-09-09T09:31:02.925Z,18.80
2022-09-09T09:33:41.893Z,18.83
2022-09-09T09:36:09.324Z,18.94
2022-09-09T09:41:40.827Z,19.04
2022-09-09T09:44:29.195Z,18.96
2022-09-09T09:47:14.138Z,19.10
2022-09-09T09:49:59.672Z,19.15
2022-09-09T09:52:31.058Z,19.23
2022-09-09T09:55:07.933Z,19.07
2022-09-09T09:57:35.363Z,19.15
2022-09-09T10:00:16.428Z,19.26
2022-09-09T10:02:47.417Z,19.10
2022-09-09T10:05:35.573Z,19.12
2022-09-09T10:08:14.033Z,19.21
2022-09-09T10:11:15.953Z,19.15
2022-09-09T10:13:55.807Z,19.16
2022-09-09T10:16:38.503Z,19.13
2022-09-09T10:19:09.990Z,19.23
2022-09-09T10:22:08.961Z,19.52
2022-09-09T10:25:05.093Z,19.83
2022-09-09T10:27:55.591Z,19.88
2022-09-09T10:31:04.877Z,19.79
2022-09-09T10:33:46.207Z,19.67
2022-09-09T10:36:24.628Z,19.65
2022-09-09T10:39:06.160Z,19.48
2022-09-09T10:41:40.051Z,19.41
2022-09-09T10:44:07.729Z,19.41
2022-09-09T10:46:53.474Z,19.39
2022-09-09T10:49:28.504Z,19.57
2022-09-09T10:52:29.515Z,19.92
2022-09-09T10:55:14.553Z,20.26
2022-09-09T10:57:52.236Z,20.54
2022-09-09T11:00:25.065Z,20.72
2022-09-09T11:03:03.833Z,20.77
2022-09-09T11:05:42.618Z,20.65
2022-09-09T11:08:19.374Z,20.73
2022-09-09T11:11:05.286Z,21.05
2022-09-09T11:13:52.497Z,21.37
2022-09-09T11:16:51.307Z,21.39
2022-09-09T11:19:35.201Z,21.42
2022-09-09T11:22:42.672Z,21.53
2022-09-09T11:25:15.541Z,21.39
2022-09-09T11:27:52.342Z,21.08
2022-09-09T11:31:05.134Z,21.01
2022-09-09T11:33:34.662Z,20.75
2022-09-09T11:36:17.229Z,20.50
2022-09-09T11:38:53.155Z,20.39
2022-09-09T11:41:22.129Z,20.24
2022-09-09T11:43:52.916Z,19.94
2022-09-09T11:46:23.987Z,19.86
2022-09-09T11:49:03.653Z,19.74
2022-09-09T11:51:33.058Z,19.33
2022-09-09T11:54:06.042Z,18.85
2022-09-09T11:56:35.032Z,18.57
2022-09-09T11:59:20.213Z,18.65
2022-09-09T12:01:51.829Z,18.64
2022-09-09T12:04:27.333Z,18.59
2022-09-09T12:07:21.593Z,18.53
2022-09-09T12:10:04.102Z,18.73
2022-09-09T12:12:40.371Z,18.64
2022-09-09T12:15:09.545Z,18.97
2022-09-09T12:17:47.631Z,19.06
2022-09-09T12:20:24.657Z,19.27
2022-09-09T12:23:17.081Z,19.37
2022-09-09T12:25:58.484Z,19.62
2022-09-09T12:28:44.321Z,19.67
2022-09-09T12:31:19.227Z,19.68
2022-09-09T12:33:48.399Z,19.85
2022-09-09T12:36:23.104Z,20.07
2022-09-09T12:38:51.517Z,20.06
2022-09-09T12:41:23.357Z,20.32
2022-09-09T12:43:51.640Z,20.52
2022-09-09T12:46:41.851Z,21.04
2022-09-09T12:49:35.359Z,21.51
2022-09-09T12:52:36.663Z,21.78
2022-09-09T12:55:06.082Z,21.97
2022-09-09T12:57:39.054Z,21.96
2022-09-09T13:00:18.795Z,21.74
2022-09-09T13:02:53.750Z,21.63
2022-09-09T13:05:36.397Z,21.27
2022-09-09T13:08:05.132Z,20.95
2022-09-09T13:11:00.271Z,20.86
2022-09-09T13:13:40.374Z,20.78
2022-09-09T13:16:20.448Z,20.87
2022-09-09T13:18:47.501Z,20.86
2022-09-09T13:21:15.170Z,20.97
2022-09-09T13:23:42.203Z,21.11
2022-09-09T13:26:27.433Z,21.42
2022-09-09T13:28:55.378Z,21.69
2022-09-09T13:31:34.758Z,21.65
2022-09-09T13:34:12.207Z,21.93
2022-09-09T13:36:38.655Z,22.12
2022-09-09T13:39:05.154Z,22.17
2022-09-09T13:41:37.266Z,22.38
2022-09-09T13:44:05.456Z,22.18
2022-09-09T13:46:43.296Z,22.41
2022-09-09T13:49:12.497Z,22.64
2022-09-09T13:51:47.567Z,22.48
2022-09-09T13:54:16.013Z,22.31
2022-09-09T13:56:43.476Z,21.99
2022-09-09T13:59:17.009Z,21.78
2022-09-09T14:01:44.095Z,21.91
2022-09-09T14:04:11.600Z,22.23
2022-09-09T14:06:40.137Z,22.47
2022-09-09T14:09:08.355Z,22.66
2022-09-09T14:11:35.011Z,22.88
2022-09-09T14:14:01.990Z,22.83
2022-09-09T14:16:30.506Z,22.68
2022-09-09T14:19:01.047Z,22.60
2022-09-09T14:21:29.676Z,22.57
2022-09-09T14:23:56.190Z,22.47
2022-09-09T14:26:22.987Z,22.42
2022-09-09T14:28:55.311Z,22.30
2022-09-09T14:31:23.738Z,22.29
2022-09-09T14:33:51.699Z,22.23
2022-09-09T14:36:18.179Z,22.01
2022-09-09T14:38:44.581Z,21.89
2022-09-09T14:41:17.856Z,21.61
2022-09-09T14:43:45.242Z,21.67
2022-09-09T14:46:14.133Z,21.69
2022-09-09T14:48:41.643Z,21.63
2022-09-09T14:51:14.338Z,21.51
2022-09-09T14:53:41.747Z,21.39
2022-09-09T14:56:17.636Z,21.29
2022-09-09T14:58:44.946Z,21.22
2022-09-09T15:01:14.200Z,21.02
2022-09-09T15:03:42.506Z,20.78
2022-09-09T15:06:13.881Z,20.70
2022-09-09T15:08:42.806Z,20.65
2022-09-09T15:11:11.344Z,20.66
2022-09-09T15:13:39.179Z,20.61
2022-09-09T15:16:08.179Z,20.60
2022-09-09T15:18:37.185Z,20.50
2022-09-09T15:21:05.890Z,20.46
2022-09-09T15:23:33.860Z,20.44
2022-09-09T15:26:01.493Z,20.42
2022-09-09T15:28:28.583Z,20.41
2022-09-09T15:30:55.858Z,20.45
2022-09-09T15:33:23.026Z,20.46
2022-09-09T15:35:50.692Z,20.50
2022-09-09T15:38:18.258Z,20.55
2022-09-09T15:40:44.958Z,20.59
2022-09-09T15:43:11.714Z,20.63
2022-09-09T15:45:38.413Z,20.68
2022-09-09T15:48:05.444Z,20.70
2022-09-09T15:50:33.372Z,20.73
2022-09-09T15:53:00.948Z,20.83
2022-09-09T15:55:27.962Z,20.84
2022-09-09T15:57:54.382Z,21.08
2022-09-09T16:00:21.382Z,21.38
2022-09-09T16:02:48.753Z,21.71
2022-09-09T16:05:15.738Z,21.77
2022-09-09T16:07:43.329Z,21.83
2022-09-09T16:10:10.451Z,21.83
2022-09-09T16:12:37.016Z,21.82
2022-09-09T16:15:04.033Z,21.71
2022-09-09T16:17:30.834Z,21.54
2022-09-09T16:19:58.906Z,21.35
2022-09-09T16:22:25.513Z,21.24
2022-09-09T16:24:51.998Z,21.08
2022-09-09T16:27:19.054Z,20.95
2022-09-09T16:29:46.101Z,20.91
2022-09-09T16:32:12.878Z,20.72
2022-09-09T16:34:39.339Z,20.61
2022-09-09T16:37:05.846Z,20.49
2022-09-09T16:39:32.638Z,20.38
2022-09-09T16:41:59.825Z,20.31
2022-09-09T16:44:27.502Z,20.21
2022-09-09T16:46:58.277Z,20.10
2022-09-09T16:49:28.696Z,20.02
2022-09-09T16:51:55.094Z,19.95
2022-09-09T16:54:22.857Z,19.92
2022-09-09T16:56:49.460Z,19.92
2022-09-09T16:59:18.161Z,19.85
2022-09-09T17:01:46.429Z,19.82
2022-09-09T17:04:21.288Z,19.79
2022-09-09T17:06:53.194Z,19.80
2022-09-09T17:09:21.233Z,19.73
2022-09-09T17:11:48.835Z,19.73
2022-09-09T17:14:18.567Z,19.61
2022-09-09T17:16:45.580Z,19.49
2022-09-09T17:19:12.691Z,19.44
2022-09-09T17:21:54.554Z,19.36
2022-09-09T17:24:30.139Z,19.31
2022-09-09T17:26:58.620Z,19.30
2022-09-09T17:29:26.375Z,19.14
2022-09-09T17:31:53.685Z,19.02
2022-09-09T17:34:20.168Z,19.03
2022-09-09T17:36:46.721Z,18.96
2022-09-09T17:39:13.160Z,18.94
2022-09-09T17:41:40.771Z,18.84
2022-09-09T17:46:42.073Z,18.77
2022-09-09T17:49:11.377Z,18.73
2022-09-09T17:51:37.752Z,18.69
2022-09-09T17:54:09.996Z,18.67
2022-09-09T17:56:38.684Z,18.65
2022-09-09T17:59:07.812Z,18.64
2022-09-09T18:01:39.668Z,18.61
2022-09-09T18:04:08.354Z,18.60
2022-09-09T18:06:38.346Z,18.43
2022-09-09T18:09:08.592Z,18.12
2022-09-09T18:11:43.846Z,17.92
2022-09-09T18:14:12.772Z,18.05
2022-09-09T18:16:40.779Z,17.82
2022-09-09T18:19:09.574Z,17.68
2022-09-09T18:21:36.293Z,17.55
2022-09-09T18:24:06.475Z,17.50
2022-09-09T18:26:35.216Z,17.02
2022-09-09T18:29:09.453Z,16.39
2022-09-09T18:31:37.657Z,16.04
2022-09-09T18:34:06.166Z,15.82
2022-09-09T18:36:39.094Z,15.83
2022-09-09T18:39:07.463Z,15.91
2022-09-09T18:41:37.239Z,15.78
2022-09-09T18:44:10.381Z,15.72
2022-09-09T18:46:39.808Z,15.65
2022-09-09T18:49:07.034Z,15.69
2022-09-09T18:51:35.268Z,15.70
2022-09-09T18:54:09.379Z,15.76
2022-09-09T18:56:36.775Z,15.62
2022-09-09T18:59:06.561Z,15.62
2022-09-09T19:01:35.487Z,15.65
2022-09-09T19:04:04.239Z,15.75
2022-09-09T19:06:32.642Z,15.80
2022-09-09T19:09:03.714Z,15.89
2022-09-09T19:11:31.386Z,15.85
2022-09-09T19:14:01.488Z,15.62
2022-09-09T19:16:30.628Z,15.65
2022-09-09T19:19:02.399Z,15.64
2022-09-09T19:21:31.704Z,15.66
2022-09-09T19:24:07.503Z,15.57
2022-09-09T19:26:40.750Z,15.55
2022-09-09T19:29:10.095Z,15.47
2022-09-09T19:31:37.138Z,15.43
2022-09-09T19:34:05.192Z,15.44
2022-09-09T19:36:31.702Z,15.45
2022-09-09T19:38:58.955Z,15.51
2022-09-09T19:41:27.965Z,15.61
2022-09-09T19:44:02.935Z,15.65
2022-09-09T19:46:36.539Z,15.68
2022-09-09T19:49:05.159Z,15.74
2022-09-09T19:51:32.489Z,15.73
2022-09-09T19:54:03.182Z,15.79
2022-09-09T19:56:31.163Z,15.80
2022-09-09T19:58:57.813Z,15.78
2022-09-09T20:01:28.018Z,15.73
2022-09-09T20:03:56.896Z,15.74
2022-09-09T20:06:29.012Z,15.78
2022-09-09T20:08:56.747Z,15.76
2022-09-09T20:11:24.945Z,15.74
2022-09-09T20:13:51.763Z,15.77
2022-09-09T20:16:23.787Z,15.79
2022-09-09T20:18:56.769Z,15.77
2022-09-09T20:21:35.172Z,15.76
2022-09-09T20:24:07.409Z,15.74
2022-09-09T20:26:36.279Z,15.73
2022-09-09T20:29:07.640Z,15.68
2022-09-09T20:31:36.541Z,15.66
2022-09-09T20:34:05.167Z,15.61
2022-09-09T20:36:35.256Z,15.61
2022-09-09T20:39:09.331Z,15.57
2022-09-09T20:41:37.506Z,15.52
2022-09-09T20:44:12.233Z,15.49
2022-09-09T20:46:41.221Z,15.49
2022-09-09T20:49:08.877Z,15.43
2022-09-09T20:51:35.910Z,15.34
2022-09-09T20:54:08.515Z,15.35
2022-09-09T20:56:38.572Z,15.35
2022-09-09T20:59:07.438Z,15.36
2022-09-09T21:01:34.156Z,15.31
2022-09-09T21:04:01.101Z,15.26
2022-09-09T21:06:27.708Z,15.19
2022-09-09T21:08:54.321Z,15.17
2022-09-09T21:11:20.866Z,15.16
2022-09-09T21:13:47.349Z,15.17
2022-09-09T21:16:19.314Z,15.11
2022-09-09T21:18:45.851Z,15.07
2022-09-09T21:21:12.292Z,15.10
2022-09-09T21:23:38.813Z,15.10
2022-09-09T21:26:07.446Z,15.10
2022-09-09T21:28:35.981Z,15.12
2022-09-09T21:31:03.548Z,15.10
2022-09-09T21:33:30.416Z,15.10
2022-09-09T21:36:03.518Z,15.06
2022-09-09T21:38:30.318Z,14.95
2022-09-09T21:40:56.926Z,14.89
2022-09-09T21:43:26.232Z,14.79
2022-09-09T21:45:53.618Z,14.76
2022-09-09T21:48:20.055Z,14.85
2022-09-09T21:50:48.025Z,14.79
2022-09-09T21:53:18.052Z,14.80
2022-09-09T21:55:46.475Z,14.82
2022-09-09T21:58:14.283Z,14.78
2022-09-09T22:00:42.601Z,14.84
2022-09-09T22:03:09.325Z,14.91
2022-09-09T22:05:40.120Z,14.94
2022-09-09T22:08:06.554Z,14.98
2022-09-09T22:10:36.666Z,14.98
2022-09-09T22:13:03.349Z,14.99
2022-09-09T22:15:31.133Z,15.06
2022-09-09T22:18:00.023Z,15.04
2022-09-09T22:20:26.435Z,15.03
2022-09-09T22:22:52.858Z,15.05
2022-09-09T22:25:19.231Z,15.05
2022-09-09T22:27:45.669Z,15.07
2022-09-09T22:30:12.216Z,15.04
2022-09-09T22:32:38.865Z,15.08
2022-09-09T22:35:05.852Z,15.11
2022-09-09T22:37:32.453Z,15.07
2022-09-09T22:39:59.107Z,15.08
2022-09-09T22:42:25.514Z,15.07
2022-09-09T22:44:51.923Z,15.05
2022-09-09T22:47:18.510Z,15.04
2022-09-09T22:49:44.903Z,14.99
2022-09-09T22:52:11.360Z,14.95
2022-09-09T22:54:40.608Z,14.95
2022-09-09T22:57:09.457Z,14.99
2022-09-09T22:59:36.342Z,15.00
2022-09-09T23:02:03.088Z,14.99
2022-09-09T23:04:29.533Z,15.04
2022-09-09T23:06:56.141Z,15.03
2022-09-09T23:09:22.691Z,15.01
2022-09-09T23:11:49.173Z,15.06
2022-09-09T23:14:15.561Z,14.94
2022-09-09T23:16:46.493Z,14.84
2022-09-09T23:19:16.186Z,14.87
2022-09-09T23:21:45.121Z,14.90
2022-09-09T23:24:14.677Z,14.82
2022-09-09T23:26:43.997Z,14.85
2022-09-09T23:29:14.645Z,14.85
2022-09-09T23:31:44.356Z,14.86
2022-09-09T23:34:12.820Z,14.88
2022-09-09T23:36:39.526Z,14.95
2022-09-09T23:39:07.167Z,14.96
2022-09-09T23:41:35.448Z,15.00
2022-09-09T23:44:03.815Z,15.01
2022-09-09T23:46:32.187Z,15.00
2022-09-09T23:48:59.711Z,15.00
2022-09-09T23:51:30.338Z,15.00
2022-09-09T23:54:01.003Z,15.05
2022-09-09T23:56:32.258Z,15.00
2022-09-09T23:58:59.959Z,15.05
